Details From CYXY - WHITEHORSE INTL
To PAJN - Juneau Intl
Flight Number -
Tags generated
Created
Modified
Stats Distance 142 nm / 264 km
Max Altitude 0 ft / 0 m
Waypoints 3
Social Downloads 8
Likes 0
Share VATSIM

Download

Looking for another format? Having issues loading an existing format? Contact us
Advertisement - Login to hide

Notes

None

Route

CYXY KITAR PAJN

ID Type Via Altitude Latitude Longitude Leg Dist Tot Dist Heading (true) Name
O CYXY APT - 0 ft / 0 m 60.71219˚ -135.06711˚ - 0 nm - WHITEHORSE INTL
KITAR FIX - 0 ft / 0 m 60.00000˚ -135.00000˚ 42 nm 42 nm 177° / 177° -
O PAJN APT - 0 ft / 0 m 58.35496˚ -134.57628˚ 99 nm 142 nm 172° / 173° Juneau Intl

Altitude Profile

Advertisement - Login to hide

CYXY

Details ICAO CYXY (YXY)
Name WHITEHORSE INTL
Region Canada
Timezone America/Whitehorse (UTC-8.0)
Stats Elevation 2,317 ft / 706 m (AMSL)
Location 60.712191° -135.067108°
Runways 3
Magnetic Variation 19.686° E

METAR

CYXY 110900Z 15027G37KT 15SM FEW009 BKN024 01/M00 A2972 RMK SF1SC6 SLP100

Decode

TAF

TAF CYXY 110538Z 1106/1118 15020G30KT 6SM -SN SCT012 BKN025 TEMPO 1106/1109 2SM -SN SCT008 OVC012 FM110900 16020G30KT P6SM BKN040 TEMPO 1109/1116 5SM -SN BKN020 FM111600 17020G30KT P6SM FEW040 SCT250 RMK NXT FCST BY 111200Z

Decode

Departure Runways

ID Width Length Bearing (true) Bearing (mag) Surface Threshold Offset Overrun Length
01 75 ft / 23 m 2,070 ft / 631 m 31.99° 12.30° Asphalt 335 ft / 102 m 0 ft / 0 m
13L 80 ft / 24 m 3,922 ft / 1,195 m 158.54° 138.85° Asphalt 0 ft / 0 m 0 ft / 0 m
13R 150 ft / 46 m 9,469 ft / 2,886 m 159.27° 139.58° Asphalt 850 ft / 259 m 100 ft / 30 m
19 75 ft / 23 m 2,070 ft / 631 m 212.00° 192.31° Asphalt 0 ft / 0 m 0 ft / 0 m
31L 150 ft / 46 m 9,469 ft / 2,886 m 339.29° 319.60° Asphalt 1,400 ft / 427 m 100 ft / 30 m
31R 80 ft / 24 m 3,922 ft / 1,195 m 338.54° 318.85° Asphalt 0 ft / 0 m 0 ft / 0 m

PAJN

Details ICAO PAJN (JNU)
Name Juneau Intl
Region USA (Alaska)
Timezone America/Juneau (UTC-9.0)
Stats Elevation 21 ft / 6 m (AMSL)
Location 58.354964° -134.576278°
Runways 1
Magnetic Variation 19.151° E

METAR

PAJN 110853Z 11019KT 6SM -RA BR FEW009 SCT024 OVC038 08/08 A2987

Decode

TAF

TAF PAJN 110537Z 1106/1206 12017G25KT P6SM -RA FEW005 BKN040 OVC050 WS020/14045KT FM110900 12022G30KT 4SM RA BR FEW008 OVC015 WS020/14040KT FM112100 11013KT P6SM -RA FEW015 BKN035 OVC040

Decode

Destination Runways

ID Width Length Bearing (true) Bearing (mag) Surface Threshold Offset Overrun Length
08 150 ft / 46 m 8,430 ft / 2,570 m 104.87° 85.72° Asphalt 0 ft / 0 m 450 ft / 137 m
26 150 ft / 46 m 8,430 ft / 2,570 m 284.90° 265.75° Asphalt 0 ft / 0 m 225 ft / 69 m

Approach Navaids

Runway Type Ident Frequency Range Bearing (true) Bearing (mag) Slope Elevation
08 Localiser IJDL 109.90 MHz 18 nm / 33 km 84.92° 65.77° - 21 ft / 6 m (AMSL)
08 DME IJDL 109.90 MHz 18 nm / 33 km - - - 175 ft / 53 m (AMSL)

Popular Alternatives